Equality, Alabama
Current Conditions -  °F | °C
As of 3:35 PM on Thursday 18 Dec 2014 (Local Time) from KALX Reporting Station
Scattered Clouds Scattered Clouds  
Wind Chill: 14°   Ceiling: Unl
Heat Index: 14°   Visibility: 10mi
Dew Point: -3°   Wind: 3mph
Humidity: 31%   Direction: 300°WNW
Pressure: 30.13"   Gusts: NA
Location:  32.76°N, 86.1°W
Report Text: KALX 182135Z AUTO 30003KT 10SM SCT055 SCT080 14/M03 A3013 RMK AO2 T01371032
Loading
Personal Weather Stations






























Interactive Weather Map New forecast layout! Learn more

10-Day Weather Forecast

Advertisements
Track Severe Weather on mobile